PASV

Details ICAO PASV (SVW)
Name SPARREVOHN LRRS
Region USA (Alaska)
Timezone America/Anchorage (UTC-9.0)
Plans Departing 2
Arriving 1
Stats Elevation 1,583 ft / 482 m (AMSL)
Location 61.097369° -155.574228°
Runways 1
Magnetic Variation 14.141° E
Sunrise 2017-12-18 19:35:14 UTC / 2017-12-18 10:35:14 Local
Sunset 2017-12-19 01:05:42 UTC / 2017-12-18 16:05:42 Local
Advertisement - Login to hide

Runways

ID Width Length Bearing (true) Bearing (mag) Surface Threshold Offset Overrun Length
16 150 ft / 46 m 4,092 ft / 1,247 m 182.00° 167.86° Gravel 0 ft / 0 m 0 ft / 0 m
34 150 ft / 46 m 4,092 ft / 1,247 m 2.00° 347.86° Gravel 0 ft / 0 m 60 ft / 18 m

Map

Weather


0- 5 10 15 20 25 30 35+ Temperature / ° C

Clouds and Precipitation
Forecast for 2017-12-18 18:00 UTC. Updated 2 hours ago

Ground ~20,000 ft ~40,000 ft Winds

METAR

PASV 181355Z AUTO 00000KT 10SM OVC007 M07/M07 A3004

TAF

Not found

Frequencies

Unicom 126.20 MHz CTAF/UNICOM
Warning: Do not use this data for real-world aviation or navigation. No guarantee of current accuracy is given.